Terminal Aerodrome Forecast
Issued by NWS

Home | Current Version | Previous Version | Text Only | Print | Product List | Glossary Off
Versions: 1 2 3 4 5 6 7 8 9 10 11 12 13 14 15 16 17 18 19 20 21 22 23 24 25 26 27 28 29 30 31 32 33 34 35 36 37 38

000
FTUS43 KGRB 231100
TAFRHI
TAF
KRHI 231129Z 2312/2412 34003KT 3SM BR SCT015 SCT050
      TEMPO 2312/2313 1/2SM FG BKN009 BKN050
     FM231400 34008KT P6SM SCT035 SCT060
      TEMPO 2317/2321 BKN035 BKN060
     FM232300 36005KT P6SM SCT040
     FM240900 00000KT 1/2SM FG SKC=

USA.gov is the U.S. government's official web portal to all federal, state and local government web resources and services.